Time;durP1;ratioP1;P1;durP2;ratioP2;P2;SDS_P1;SDS_P2;PMS_P1;PMS_P2;Temp;Humidity;BMP_temperature;BMP_pressure;BME280_temperature;BME280_humidity;BME280_pressure;Samples;Min_cycle;Max_cycle;Signal;HPM_P1;HPM_P2
2023/12/02 00:01:38;;;;;;;31.02;17.52;;;;;;;-2.70;100.00;100920.25;5083740;28;20031;-68
2023/12/02 00:04:03;;;;;;;31.83;18.15;;;;;;;-2.70;100.00;100915.06;5082621;28;20090;-71
2023/12/02 00:06:29;;;;;;;30.13;17.00;;;;;;;-2.68;100.00;100915.16;5084781;28;20035;-71
2023/12/02 00:08:54;;;;;;;31.38;17.60;;;;;;;-2.70;100.00;100906.41;5082559;28;20036;-72
2023/12/02 00:11:20;;;;;;;30.77;17.45;;;;;;;-2.70;100.00;100899.53;5084688;28;20107;-72
2023/12/02 00:13:46;;;;;;;31.27;17.85;;;;;;;-2.69;100.00;100901.34;5083861;28;20044;-71
2023/12/02 00:16:12;;;;;;;31.50;18.27;;;;;;;-2.76;100.00;100891.41;5083480;28;20502;-71
2023/12/02 00:18:37;;;;;;;31.15;17.35;;;;;;;-2.72;100.00;100889.88;5084922;28;20024;-71
2023/12/02 00:21:03;;;;;;;31.27;17.35;;;;;;;-2.81;100.00;100885.97;5082089;28;20028;-72
2023/12/02 00:23:28;;;;;;;31.40;17.90;;;;;;;-2.77;100.00;100909.44;5085801;28;20086;-71
2023/12/02 00:25:53;;;;;;;31.25;18.20;;;;;;;-2.79;100.00;100903.31;5082536;28;20032;-71
2023/12/02 00:28:20;;;;;;;31.15;17.58;;;;;;;-2.82;100.00;100910.06;5084115;28;20033;-73
2023/12/02 00:30:45;;;;;;;31.08;18.23;;;;;;;-2.82;100.00;100909.19;5082253;28;20051;-72
2023/12/02 00:33:11;;;;;;;31.10;18.50;;;;;;;-2.81;100.00;100904.09;5082940;28;20075;-71
2023/12/02 00:35:36;;;;;;;31.13;17.55;;;;;;;-2.79;100.00;100895.53;5084564;28;20518;-72
2023/12/02 00:38:02;;;;;;;30.60;17.67;;;;;;;-2.84;100.00;100908.19;5081739;28;20029;-74
2023/12/02 00:40:27;;;;;;;30.55;17.00;;;;;;;-2.85;100.00;100906.41;5077671;28;20032;-70
2023/12/02 00:42:52;;;;;;;31.35;17.65;;;;;;;-2.93;100.00;100905.94;5084412;28;20064;-74
2023/12/02 00:45:17;;;;;;;31.08;18.10;;;;;;;-2.96;100.00;100916.09;5082722;28;20039;-74
2023/12/02 00:47:43;;;;;;;30.83;17.55;;;;;;;-2.96;100.00;100912.63;5081887;28;20033;-72
2023/12/02 00:50:08;;;;;;;30.73;17.67;;;;;;;-2.95;100.00;100901.50;5082892;28;20036;-73
2023/12/02 00:52:34;;;;;;;30.70;18.10;;;;;;;-3.03;100.00;100901.00;5081644;28;20035;-70
2023/12/02 00:54:59;;;;;;;31.23;16.90;;;;;;;-3.03;100.00;100903.59;5085114;28;20046;-75
2023/12/02 00:57:25;;;;;;;30.60;17.60;;;;;;;-3.07;100.00;100907.72;5081661;28;20032;-75
2023/12/02 00:59:51;;;;;;;30.15;17.08;;;;;;;-3.06;100.00;100909.50;5083947;28;20029;-71
2023/12/02 01:02:16;;;;;;;29.95;17.30;;;;;;;-3.06;100.00;100913.78;5082636;28;20099;-75
2023/12/02 01:04:42;;;;;;;31.35;17.42;;;;;;;-3.07;100.00;100907.72;5082550;28;20048;-75
2023/12/02 01:07:07;;;;;;;30.60;17.60;;;;;;;-3.03;100.00;100908.78;5084186;28;20185;-73
2023/12/02 01:09:32;;;;;;;30.75;17.63;;;;;;;-3.07;100.00;100907.72;5081240;28;20028;-73
2023/12/02 01:11:58;;;;;;;30.48;17.52;;;;;;;-3.06;100.00;100896.56;5084507;28;20076;-75
2023/12/02 01:14:25;;;;;;;31.52;18.02;;;;;;;-3.06;100.00;100903.41;5080634;28;20108;-75
2023/12/02 01:16:51;;;;;;;29.98;17.40;;;;;;;-3.01;100.00;100902.03;5083614;28;20020;-74
2023/12/02 01:19:16;;;;;;;32.33;18.67;;;;;;;-2.96;100.00;100902.28;5082560;28;20039;-75
2023/12/02 01:21:42;;;;;;;31.02;17.50;;;;;;;-3.03;100.00;100893.25;5082583;28;20033;-73
2023/12/02 01:24:07;;;;;;;31.00;17.65;;;;;;;-3.03;100.00;100893.25;5083762;28;20027;-74
2023/12/02 01:26:32;;;;;;;31.48;17.70;;;;;;;-3.04;100.00;100899.25;5081050;28;20364;-74
2023/12/02 01:28:58;;;;;;;31.23;17.70;;;;;;;-3.05;100.00;100892.28;5083462;28;20061;-71
2023/12/02 01:31:23;;;;;;;31.88;18.00;;;;;;;-3.12;100.00;100890.13;5081473;28;20027;-71
2023/12/02 01:33:49;;;;;;;31.50;18.02;;;;;;;-3.06;100.00;100900.84;5082918;28;20518;-74
2023/12/02 01:36:14;;;;;;;32.30;18.35;;;;;;;-3.01;100.00;100899.44;5082936;28;20024;-70
2023/12/02 01:38:39;;;;;;;31.73;18.52;;;;;;;-2.95;100.00;100906.66;5081852;28;20447;-71
2023/12/02 01:41:05;;;;;;;31.58;18.05;;;;;;;-2.97;100.00;100904.00;5084187;28;20043;-72
2023/12/02 01:43:31;;;;;;;31.33;18.30;;;;;;;-2.93;100.00;100911.09;5080821;28;20103;-72
2023/12/02 01:45:56;;;;;;;32.22;18.85;;;;;;;-2.91;100.00;100925.06;5084023;28;20028;-70
2023/12/02 01:48:23;;;;;;;32.63;19.27;;;;;;;-2.90;100.00;100926.81;5081809;28;20492;-71
2023/12/02 01:50:49;;;;;;;32.85;18.65;;;;;;;-2.88;100.00;100934.69;5083204;28;20055;-72
2023/12/02 01:53:15;;;;;;;32.80;18.83;;;;;;;-2.88;100.00;100929.53;5082573;28;20475;-70
2023/12/02 01:55:40;;;;;;;32.53;19.17;;;;;;;-2.89;100.00;100932.91;5081916;28;20031;-71
2023/12/02 01:58:06;;;;;;;32.72;19.20;;;;;;;-2.90;100.00;100928.53;5083707;28;20115;-72
2023/12/02 02:00:31;;;;;;;32.25;18.50;;;;;;;-2.92;100.00;100936.19;5080690;28;20111;-71
2023/12/02 02:02:56;;;;;;;33.17;19.20;;;;;;;-2.95;100.00;100930.84;5084084;28;20433;-72
2023/12/02 02:05:22;;;;;;;32.42;19.25;;;;;;;-3.02;100.00;100931.25;5081402;28;20028;-71
2023/12/02 02:07:47;;;;;;;32.80;19.42;;;;;;;-3.08;100.00;100930.91;5082525;28;20394;-71
2023/12/02 02:10:13;;;;;;;33.17;19.40;;;;;;;-3.08;100.00;100936.97;5082816;28;20020;-70
2023/12/02 02:12:38;;;;;;;33.60;19.17;;;;;;;-3.08;100.00;100933.50;5081080;28;20067;-72
2023/12/02 02:15:04;;;;;;;33.08;19.30;;;;;;;-3.05;100.00;100928.50;5085725;28;20024;-71
2023/12/02 02:17:29;;;;;;;33.92;19.55;;;;;;;-3.05;100.00;100928.50;5084702;28;20025;-70
2023/12/02 02:19:54;;;;;;;32.63;19.25;;;;;;;-3.05;100.00;100925.91;5087261;28;20063;-72
2023/12/02 02:22:20;;;;;;;33.60;19.75;;;;;;;-3.07;100.00;100931.00;5085541;28;20032;-71
2023/12/02 02:24:45;;;;;;;33.17;19.45;;;;;;;-3.07;100.00;100930.06;5086018;28;20533;-72
2023/12/02 02:27:11;;;;;;;33.45;19.45;;;;;;;-3.07;100.00;100924.91;5086593;28;20032;-71
2023/12/02 02:29:36;;;;;;;33.53;19.83;;;;;;;-3.06;100.00;100929.28;5084808;28;20052;-71
2023/12/02 02:32:01;;;;;;;34.08;20.02;;;;;;;-3.08;100.00;100925.72;5087274;28;20048;-68
2023/12/02 02:34:27;;;;;;;33.42;19.45;;;;;;;-3.10;100.00;100927.31;5084480;28;20032;-72
2023/12/02 02:36:53;;;;;;;32.72;19.23;;;;;;;-3.09;100.00;100924.81;5087245;28;20143;-67
2023/12/02 02:39:18;;;;;;;34.58;19.95;;;;;;;-3.02;100.00;100928.69;5085292;28;20090;-68
2023/12/02 02:41:44;;;;;;;32.45;19.13;;;;;;;-3.00;100.00;100940.91;5085397;28;20020;-71
2023/12/02 02:44:09;;;;;;;32.28;18.77;;;;;;;-2.91;100.00;100937.06;5086743;28;20032;-72
2023/12/02 02:46:35;;;;;;;33.00;19.35;;;;;;;-2.92;100.00;100938.78;5084244;28;20025;-71
2023/12/02 02:49:00;;;;;;;33.30;19.40;;;;;;;-2.89;100.00;100948.44;5086097;28;20024;-73
2023/12/02 02:51:25;;;;;;;32.92;19.40;;;;;;;-2.84;100.00;100947.91;5084228;28;20041;-71
2023/12/02 02:53:51;;;;;;;32.67;18.98;;;;;;;-2.81;100.00;100945.50;5086275;28;20090;-71
2023/12/02 02:56:19;;;;;;;32.17;18.95;;;;;;;-2.77;100.00;100946.56;5085522;28;20386;-71
2023/12/02 02:58:45;;;;;;;32.05;18.92;;;;;;;-2.77;100.00;100950.84;5085312;28;20111;-71
2023/12/02 03:01:10;;;;;;;32.35;19.10;;;;;;;-2.75;100.00;100952.75;5086335;28;20513;-75
2023/12/02 03:03:36;;;;;;;32.47;18.98;;;;;;;-2.74;100.00;100949.31;5084276;28;20016;-74
2023/12/02 03:06:01;;;;;;;33.08;19.38;;;;;;;-2.75;100.00;100963.09;5087034;28;20386;-75
2023/12/02 03:08:26;;;;;;;32.28;18.52;;;;;;;-2.76;100.00;100955.22;5083791;28;20025;-75
2023/12/02 03:10:52;;;;;;;32.83;18.88;;;;;;;-2.74;100.00;100953.63;5086173;28;20074;-75
2023/12/02 03:13:17;;;;;;;32.15;18.55;;;;;;;-2.79;100.00;100965.41;5084789;28;20104;-75
2023/12/02 03:15:42;;;;;;;32.50;18.98;;;;;;;-2.77;100.00;100958.63;5084538;28;20029;-74
2023/12/02 03:18:08;;;;;;;32.15;18.67;;;;;;;-2.78;100.00;100965.50;5086323;28;20032;-74
2023/12/02 03:20:34;;;;;;;33.30;19.73;;;;;;;-2.77;100.00;100956.91;5083356;28;20417;-73
2023/12/02 03:22:59;;;;;;;32.15;18.65;;;;;;;-2.82;100.00;100966.09;5079122;28;20029;-66
2023/12/02 03:25:25;;;;;;;33.70;19.80;;;;;;;-2.85;100.00;100955.56;5086189;28;20020;-73
2023/12/02 03:27:51;;;;;;;32.22;18.77;;;;;;;-2.87;100.00;100957.16;5084390;28;20035;-74
2023/12/02 03:30:16;;;;;;;32.28;18.95;;;;;;;-2.94;100.00;100945.56;5083609;28;20032;-66
2023/12/02 03:32:42;;;;;;;33.08;19.10;;;;;;;-2.96;100.00;100959.19;5085436;28;20097;-66
2023/12/02 03:35:08;;;;;;;31.90;18.85;;;;;;;-2.93;100.00;100957.69;5083493;28;20017;-67
2023/12/02 03:37:35;;;;;;;32.10;19.08;;;;;;;-2.92;100.00;100956.00;5086678;28;20040;-68
2023/12/02 03:40:00;;;;;;;33.03;19.00;;;;;;;-2.95;100.00;100953.25;5079409;28;20111;-66
2023/12/02 03:42:25;;;;;;;32.08;18.67;;;;;;;-2.99;100.00;100946.97;5085861;28;20559;-67
2023/12/02 03:44:51;;;;;;;32.50;19.25;;;;;;;-3.05;100.00;100947.50;5084117;28;20501;-67
2023/12/02 03:47:16;;;;;;;34.90;20.30;;;;;;;-3.10;100.00;100951.50;5084391;28;20025;-67
2023/12/02 03:49:41;;;;;;;34.10;20.27;;;;;;;-3.09;100.00;100960.16;5085016;28;20031;-67
2023/12/02 03:52:07;;;;;;;33.90;20.13;;;;;;;-3.13;100.00;100953.91;5083376;28;20467;-68
2023/12/02 03:54:32;;;;;;;32.72;19.45;;;;;;;-3.11;100.00;100943.66;5086068;28;20059;-68
2023/12/02 03:56:57;;;;;;;33.70;19.90;;;;;;;-3.07;100.00;100963.72;5081469;28;20040;-67
2023/12/02 03:59:23;;;;;;;32.88;19.10;;;;;;;-3.03;100.00;100978.63;5085279;28;20039;-67
2023/12/02 04:01:48;;;;;;;34.10;19.95;;;;;;;-2.98;100.00;100984.97;5083930;28;20099;-67
2023/12/02 04:04:14;;;;;;;33.90;20.27;;;;;;;-3.02;100.00;100963.19;5083701;28;20115;-67
2023/12/02 04:06:39;;;;;;;32.67;19.40;;;;;;;-3.06;100.00;100986.19;5085260;28;20425;-68
2023/12/02 04:09:05;;;;;;;32.25;18.98;;;;;;;-3.02;100.00;100983.00;5082370;28;20028;-67
2023/12/02 04:11:31;;;;;;;33.05;19.42;;;;;;;-3.08;100.00;100978.34;5084668;28;20024;-67
2023/12/02 04:13:56;;;;;;;33.08;19.33;;;;;;;-3.06;100.00;100988.78;5082568;28;20453;-68
2023/12/02 04:16:22;;;;;;;34.30;20.20;;;;;;;-3.02;100.00;100978.72;5083364;28;20108;-68
2023/12/02 04:18:47;;;;;;;33.55;19.60;;;;;;;-2.95;100.00;100985.16;5083965;28;20032;-67
2023/12/02 04:21:13;;;;;;;33.00;19.63;;;;;;;-2.89;100.00;100995.88;5083104;28;20031;-67
2023/12/02 04:23:38;;;;;;;33.47;20.02;;;;;;;-2.84;100.00;100993.56;5084908;28;20088;-67
2023/12/02 04:26:06;;;;;;;34.03;20.30;;;;;;;-2.84;100.00;101006.50;5082205;28;20376;-75
2023/12/02 04:28:33;;;;;;;34.45;20.77;;;;;;;-2.79;100.00;101001.63;5078110;28;20387;-74
2023/12/02 04:30:58;;;;;;;32.78;19.27;;;;;;;-2.81;100.00;101001.50;5085184;28;20032;-75
2023/12/02 04:33:24;;;;;;;32.47;19.27;;;;;;;-2.79;100.00;100999.94;5082559;28;20055;-74
2023/12/02 04:35:49;;;;;;;33.60;20.25;;;;;;;-2.83;100.00;101008.31;5083826;28;20025;-75
2023/12/02 04:38:15;;;;;;;33.38;20.00;;;;;;;-2.87;100.00;101007.25;5083068;28;20028;-75
2023/12/02 04:40:41;;;;;;;33.80;19.77;;;;;;;-2.89;100.00;101003.66;5082731;28;20483;-73
2023/12/02 04:43:06;;;;;;;32.50;19.23;;;;;;;-2.84;100.00;101003.91;5085164;28;20028;-75
2023/12/02 04:45:32;;;;;;;33.72;19.85;;;;;;;-2.88;100.00;101002.84;5081608;28;20480;-75
2023/12/02 04:47:57;;;;;;;32.10;18.85;;;;;;;-2.90;100.00;100998.38;5085153;28;20077;-74
2023/12/02 04:50:23;;;;;;;32.85;20.30;;;;;;;-2.93;100.00;100999.06;5082540;28;20510;-74
2023/12/02 04:52:48;;;;;;;32.53;19.15;;;;;;;-2.95;100.00;100999.81;5083501;28;20032;-75
2023/12/02 04:55:14;;;;;;;32.42;19.48;;;;;;;-2.98;100.00;101010.84;5083911;28;20052;-74
2023/12/02 04:57:40;;;;;;;33.88;19.35;;;;;;;-2.99;100.00;101004.75;5082090;28;20043;-73
2023/12/02 05:00:13;;;;;;;32.55;19.50;;;;;;;-2.98;100.00;101010.84;5084760;28;20032;-74
2023/12/02 05:02:42;;;;;;;33.80;19.80;;;;;;;-3.01;100.00;101008.97;5082061;28;20033;-75
2023/12/02 05:05:12;;;;;;;32.17;19.70;;;;;;;-2.98;100.00;101010.84;5084502;28;20118;-75
2023/12/02 05:07:38;;;;;;;32.17;19.38;;;;;;;-2.98;100.00;101006.56;5080503;28;20036;-67
2023/12/02 05:10:04;;;;;;;32.70;19.70;;;;;;;-2.93;100.00;101024.06;5085302;28;20028;-67
2023/12/02 05:12:30;;;;;;;33.38;19.67;;;;;;;-2.95;100.00;101015.34;5081391;28;20368;-67
2023/12/02 05:14:56;;;;;;;31.83;19.23;;;;;;;-2.95;100.00;101010.16;5084031;28;20102;-67
2023/12/02 05:17:21;;;;;;;32.42;19.67;;;;;;;-2.94;100.00;101023.19;5082541;28;20493;-67
2023/12/02 05:19:47;;;;;;;33.13;19.65;;;;;;;-2.92;100.00;101042.28;5082700;28;20379;-67
2023/12/02 05:22:12;;;;;;;31.70;18.85;;;;;;;-2.91;100.00;101036.31;5083536;28;20390;-69
2023/12/02 05:24:38;;;;;;;32.08;19.08;;;;;;;-2.86;100.00;101034.00;5081718;28;20060;-70
2023/12/02 05:27:04;;;;;;;32.40;19.33;;;;;;;-2.92;100.00;101037.09;5083330;28;20028;-71
2023/12/02 05:29:29;;;;;;;32.67;20.00;;;;;;;-2.91;100.00;101037.97;5081170;28;20036;-71
2023/12/02 05:31:54;;;;;;;32.00;19.13;;;;;;;-2.92;100.00;101039.69;5083630;28;20028;-70
2023/12/02 05:34:20;;;;;;;32.80;19.70;;;;;;;-2.87;100.00;101035.72;5082377;28;20020;-70
2023/12/02 05:36:47;;;;;;;33.72;20.10;;;;;;;-2.92;100.00;101036.22;5082285;28;20025;-73
2023/12/02 05:39:14;;;;;;;33.38;19.98;;;;;;;-2.85;100.00;101034.09;5082356;28;20111;-71
2023/12/02 05:41:42;;;;;;;32.83;19.52;;;;;;;-2.84;100.00;101035.88;5080238;28;20035;-71
2023/12/02 05:44:08;;;;;;;32.55;19.63;;;;;;;-2.83;100.00;101027.31;5084006;28;20035;-71
2023/12/02 05:46:34;;;;;;;33.20;19.65;;;;;;;-2.84;100.00;101024.63;5081126;28;20035;-72
2023/12/02 05:48:59;;;;;;;32.90;19.80;;;;;;;-2.87;100.00;101024.44;5086086;28;20040;-72
2023/12/02 05:51:26;;;;;;;32.83;19.08;;;;;;;-2.96;100.00;101009.25;5085786;28;20040;-73
2023/12/02 05:53:51;;;;;;;31.77;18.83;;;;;;;-3.00;100.00;101026.28;5087268;28;20036;-73
2023/12/02 05:56:19;;;;;;;33.05;19.30;;;;;;;-3.08;100.00;101045.59;5086819;28;20029;-72
2023/12/02 05:58:45;;;;;;;33.20;19.48;;;;;;;-2.99;100.00;101055.63;5086014;28;20017;-72
2023/12/02 06:01:10;;;;;;;34.28;20.00;;;;;;;-3.01;100.00;101062.41;5088050;28;20558;-75
2023/12/02 06:03:35;;;;;;;33.15;19.33;;;;;;;-3.01;100.00;101071.06;5084865;28;20586;-72
2023/12/02 06:06:01;;;;;;;32.85;19.05;;;;;;;-3.02;100.00;101076.13;5081050;28;20040;-73
2023/12/02 06:08:26;;;;;;;33.90;19.80;;;;;;;-3.09;100.00;101066.19;5087590;28;20058;-74
2023/12/02 06:10:51;;;;;;;33.85;19.58;;;;;;;-3.18;100.00;101066.50;5085835;28;20113;-73
2023/12/02 06:13:17;;;;;;;32.88;19.92;;;;;;;-3.18;100.00;101067.41;5085257;28;20479;-74
2023/12/02 06:15:42;;;;;;;33.05;19.73;;;;;;;-3.15;100.00;101064.13;5087038;28;20383;-73
2023/12/02 06:18:07;;;;;;;33.40;19.90;;;;;;;-3.10;100.00;101061.81;5084652;28;20111;-73
2023/12/02 06:20:33;;;;;;;32.75;19.58;;;;;;;-3.01;100.00;101059.81;5088139;28;20031;-73
2023/12/02 06:22:58;;;;;;;32.67;19.38;;;;;;;-3.01;100.00;101063.28;5084945;28;20024;-74
2023/12/02 06:25:24;;;;;;;32.05;19.02;;;;;;;-3.07;100.00;101073.25;5086792;28;20123;-74
2023/12/02 06:27:49;;;;;;;32.95;19.63;;;;;;;-2.97;100.00;101072.16;5086101;28;20032;-74
2023/12/02 06:30:16;;;;;;;35.45;20.33;;;;;;;-2.93;100.00;101076.69;5085352;28;20027;-75
2023/12/02 06:32:42;;;;;;;33.72;19.58;;;;;;;-2.92;100.00;101075.91;5086894;28;20056;-68
2023/12/02 06:35:08;;;;;;;33.13;19.88;;;;;;;-2.94;100.00;101081.78;5084786;28;20070;-67
2023/12/02 06:37:34;;;;;;;33.67;19.52;;;;;;;-2.97;100.00;101077.34;5087607;28;20510;-67
2023/12/02 06:39:59;;;;;;;32.33;19.25;;;;;;;-3.00;100.00;101083.19;5084711;28;20056;-67
2023/12/02 06:42:25;;;;;;;34.13;19.95;;;;;;;-2.98;100.00;101080.72;5087038;28;20032;-67
2023/12/02 06:44:51;;;;;;;33.70;20.33;;;;;;;-2.98;100.00;101085.88;5085412;28;20494;-68
2023/12/02 06:47:16;;;;;;;33.13;19.55;;;;;;;-3.01;100.00;101089.16;5085463;28;20028;-67
2023/12/02 06:49:41;;;;;;;33.90;19.63;;;;;;;-3.00;100.00;101096.13;5086598;28;20478;-67
2023/12/02 06:52:07;;;;;;;34.25;20.83;;;;;;;-3.04;100.00;101088.09;5084120;28;20024;-68
2023/12/02 06:54:36;;;;;;;34.13;20.60;;;;;;;-3.03;100.00;101101.13;5087540;28;20530;-68
2023/12/02 06:57:05;;;;;;;33.40;20.60;;;;;;;-3.03;100.00;101102.78;5079714;28;20108;-67
2023/12/02 06:59:31;;;;;;;35.47;20.83;;;;;;;-2.99;100.00;101104.78;5087051;28;20026;-68
2023/12/02 07:01:57;;;;;;;34.63;21.30;;;;;;;-3.03;100.00;101101.13;5083661;28;20040;-67
2023/12/02 07:04:22;;;;;;;35.00;21.63;;;;;;;-3.08;100.00;101107.69;5085863;28;20025;-67
2023/12/02 07:06:49;;;;;;;36.38;21.52;;;;;;;-3.10;100.00;101121.31;5085424;28;20107;-67
2023/12/02 07:09:14;;;;;;;34.97;20.90;;;;;;;-3.12;100.00;101122.91;5085021;28;20031;-68
2023/12/02 07:11:40;;;;;;;34.90;21.10;;;;;;;-3.10;100.00;101129.97;5086368;28;20477;-68
2023/12/02 07:14:05;;;;;;;35.17;21.50;;;;;;;-3.08;100.00;101132.66;5083516;28;20129;-68
2023/12/02 07:16:31;;;;;;;35.28;20.77;;;;;;;-3.08;100.00;101132.66;5085637;28;20540;-67
2023/12/02 07:18:56;;;;;;;34.38;20.83;;;;;;;-3.07;100.00;101127.59;5084051;28;20032;-68
2023/12/02 07:21:22;;;;;;;35.38;21.58;;;;;;;-3.10;100.00;101134.25;5084161;28;20376;-67
2023/12/02 07:23:48;;;;;;;35.03;21.38;;;;;;;-3.08;100.00;101133.56;5085389;28;20117;-68
2023/12/02 07:26:13;;;;;;;36.03;21.73;;;;;;;-3.10;100.00;101142.91;5084040;28;20025;-68
2023/12/02 07:28:39;;;;;;;35.63;21.60;;;;;;;-3.15;100.00;101136.53;5086272;28;20035;-68
2023/12/02 07:31:04;;;;;;;36.35;21.67;;;;;;;-3.10;100.00;101153.25;5083576;28;20086;-68
2023/12/02 07:33:30;;;;;;;35.40;21.13;;;;;;;-3.11;100.00;101146.28;5086012;28;20060;-69
2023/12/02 07:35:55;;;;;;;36.75;21.73;;;;;;;-3.09;100.00;101146.38;5084168;28;20050;-67
2023/12/02 07:38:20;;;;;;;36.42;22.33;;;;;;;-3.07;100.00;101147.38;5085299;28;20032;-67
2023/12/02 07:40:46;;;;;;;35.92;22.17;;;;;;;-3.09;100.00;101138.63;5085087;28;20060;-67
2023/12/02 07:43:11;;;;;;;36.00;21.58;;;;;;;-3.09;100.00;101146.38;5083963;28;20029;-67
2023/12/02 07:45:37;;;;;;;35.63;21.88;;;;;;;-3.11;100.00;101153.16;5086320;28;20107;-66
2023/12/02 07:48:04;;;;;;;36.67;21.58;;;;;;;-3.10;100.00;101134.25;5078759;28;20511;-67
2023/12/02 07:50:29;;;;;;;35.28;21.55;;;;;;;-3.12;100.00;101143.59;5086279;28;20032;-66
2023/12/02 07:52:54;;;;;;;37.95;22.70;;;;;;;-3.29;100.00;101146.00;5082497;28;20039;-66
2023/12/02 07:55:20;;;;;;;35.35;21.13;;;;;;;-3.39;100.00;101152.25;5066493;28;20024;-67
2023/12/02 07:57:45;;;;;;;36.15;22.17;;;;;;;-3.42;100.00;101157.25;5085081;28;20074;-68
2023/12/02 08:00:11;;;;;;;37.50;21.95;;;;;;;-3.48;100.00;101161.09;5082956;28;20028;-67
2023/12/02 08:02:36;;;;;;;37.00;22.60;;;;;;;-3.39;100.00;101169.47;5086048;28;20085;-76
2023/12/02 08:05:02;;;;;;;36.35;22.05;;;;;;;-3.37;100.00;101175.63;5082587;28;20029;-74
2023/12/02 08:07:27;;;;;;;38.75;22.88;;;;;;;-3.36;100.00;101177.44;5084203;28;20036;-75
2023/12/02 08:09:53;;;;;;;36.33;22.00;;;;;;;-3.38;100.00;101176.41;5082228;28;20028;-77
2023/12/02 08:12:18;;;;;;;37.08;22.80;;;;;;;-3.44;100.00;101173.44;5082881;28;20396;-76
2023/12/02 08:14:44;;;;;;;35.90;22.00;;;;;;;-3.48;100.00;101176.59;5083537;28;20035;-75
2023/12/02 08:17:09;;;;;;;36.70;21.75;;;;;;;-3.50;100.00;101176.50;5082688;28;20054;-74
2023/12/02 08:19:35;;;;;;;36.08;22.25;;;;;;;-3.49;100.00;101186.06;5084401;28;20032;-73
2023/12/02 08:22:01;;;;;;;35.78;21.15;;;;;;;-3.49;100.00;101191.25;5082261;28;20111;-77
2023/12/02 08:24:26;;;;;;;36.65;22.55;;;;;;;-3.48;100.00;101199.88;5084864;28;20033;-76
2023/12/02 08:26:52;;;;;;;36.67;22.10;;;;;;;-3.50;100.00;101195.50;5083510;28;20020;-76
2023/12/02 08:29:17;;;;;;;37.10;22.20;;;;;;;-3.53;100.00;101200.47;5083341;28;20067;-77
2023/12/02 08:31:42;;;;;;;37.53;22.73;;;;;;;-3.46;100.00;101214.69;5084739;28;20028;-76
2023/12/02 08:34:08;;;;;;;36.00;22.13;;;;;;;-3.40;100.00;101215.09;5081516;28;20522;-75
2023/12/02 08:36:33;;;;;;;37.10;22.88;;;;;;;-3.17;100.00;101213.16;5084199;28;20485;-77
2023/12/02 08:38:58;;;;;;;37.15;23.00;;;;;;;-3.03;100.00;101220.13;5082510;28;20364;-76
2023/12/02 08:41:24;;;;;;;36.72;21.92;;;;;;;-3.03;100.00;101217.53;5083082;28;20089;-76
2023/12/02 08:43:49;;;;;;;36.17;21.48;;;;;;;-3.00;100.00;101216.81;5083665;28;20448;-77
2023/12/02 08:46:18;;;;;;;34.42;20.70;;;;;;;-2.98;100.00;101229.06;5082843;28;20086;-71
2023/12/02 08:48:44;;;;;;;35.45;21.30;;;;;;;-2.91;100.00;101229.47;5084280;28;20039;-76
2023/12/02 08:51:09;;;;;;;38.05;23.23;;;;;;;-2.82;100.00;101233.53;5081836;28;20099;-77
2023/12/02 08:53:35;;;;;;;36.05;21.55;;;;;;;-2.78;100.00;101234.66;5085302;28;20111;-77
2023/12/02 08:56:00;;;;;;;37.58;22.70;;;;;;;-2.83;100.00;101228.28;5080627;28;20024;-78
2023/12/02 08:58:25;;;;;;;36.15;22.35;;;;;;;-2.93;100.00;101226.78;5084225;28;20420;-72
2023/12/02 09:00:51;;;;;;;37.78;22.98;;;;;;;-2.99;100.00;101231.56;5083173;28;20056;-78
2023/12/02 09:03:17;;;;;;;38.35;24.45;;;;;;;-3.02;100.00;101228.78;5082930;28;20040;-78
2023/12/02 09:05:42;;;;;;;37.63;23.00;;;;;;;-2.99;100.00;101241.91;5084417;28;20044;-75
2023/12/02 09:08:08;;;;;;;38.15;23.42;;;;;;;-2.96;100.00;101234.34;5081311;28;20111;-75
2023/12/02 09:10:33;;;;;;;37.92;23.70;;;;;;;-2.84;100.00;101235.16;5059335;28;20203;-71
2023/12/02 09:12:58;;;;;;;38.90;23.85;;;;;;;-2.38;100.00;101244.06;5085836;28;20077;-75
2023/12/02 09:15:24;;;;;;;38.35;23.13;;;;;;;-2.07;100.00;101241.66;5082477;28;20081;-71
2023/12/02 09:18:34;;;;;;;35.78;21.75;;;;;;;-1.47;100.00;101252.16;5082654;28;20056;-71
2023/12/02 09:21:00;;;;;;;35.40;22.13;;;;;;;-0.97;100.00;101246.44;5065199;28;20068;-71
2023/12/02 09:23:27;;;;;;;34.00;21.48;;;;;;;-0.42;100.00;101238.28;5081703;28;20162;-71
2023/12/02 09:25:53;;;;;;;33.67;20.88;;;;;;;-0.24;100.00;101237.50;5082109;28;20150;-71
2023/12/02 09:28:20;;;;;;;33.97;20.80;;;;;;;-0.07;100.00;101246.22;5083190;28;20028;-70
2023/12/02 09:31:08;;;;;;;33.50;21.13;;;;;;;0.28;100.00;101237.66;5082128;28;20377;-71
2023/12/02 09:33:34;;;;;;;32.35;20.30;;;;;;;0.40;100.00;101237.41;5076681;28;20070;-71
2023/12/02 09:36:02;;;;;;;31.98;19.85;;;;;;;0.29;100.00;101251.56;5083837;28;20070;-71
2023/12/02 09:38:28;;;;;;;33.72;20.75;;;;;;;0.36;100.00;101247.59;5081791;28;20036;-71
2023/12/02 09:40:56;;;;;;;32.95;20.60;;;;;;;0.54;100.00;101242.44;5082988;28;20039;-70
2023/12/02 09:43:46;;;;;;;33.15;20.90;;;;;;;0.48;100.00;101250.81;5082410;28;20420;-70
2023/12/02 09:46:37;;;;;;;33.03;20.00;;;;;;;0.74;100.00;101253.84;5078331;28;20098;-74
2023/12/02 09:49:05;;;;;;;32.42;19.73;;;;;;;0.72;100.00;101255.50;5064811;28;20398;-73
2023/12/02 09:51:46;;;;;;;32.83;21.00;;;;;;;0.86;100.00;101259.69;5084184;28;20032;-73
2023/12/02 09:54:26;;;;;;;31.95;19.85;;;;;;;0.84;100.00;101253.50;5078282;28;20028;-73
2023/12/02 09:57:11;;;;;;;32.70;20.08;;;;;;;1.02;100.00;101261.34;5082625;28;20028;-74
2023/12/02 09:59:45;;;;;;;31.92;19.63;;;;;;;1.14;100.00;101254.13;5077138;28;20048;-74
2023/12/02 10:02:32;;;;;;;32.28;19.98;;;;;;;1.24;100.00;101258.09;5077824;28;20039;-74
2023/12/02 10:05:10;;;;;;;31.67;19.77;;;;;;;1.87;100.00;101255.84;5081430;28;20020;-74
2023/12/02 10:08:08;;;;;;;32.60;20.08;;;;;;;2.27;100.00;101248.94;5076791;28;20033;-74
2023/12/02 10:11:02;;;;;;;32.92;20.33;;;;;;;2.42;100.00;101247.03;5076672;28;20032;-74
2023/12/02 10:13:44;;;;;;;30.60;18.88;;;;;;;3.16;100.00;101259.72;5082403;28;20036;-74
2023/12/02 10:16:15;;;;;;;30.85;18.92;;;;;;;3.44;100.00;101258.22;5077556;28;20437;-68
2023/12/02 10:18:51;;;;;;;31.25;19.13;;;;;;;3.82;100.00;101259.69;5083728;28;20126;-68
2023/12/02 10:21:20;;;;;;;30.70;19.25;;;;;;;3.66;100.00;101257.34;5081851;28;20027;-68
2023/12/02 10:23:56;;;;;;;30.55;19.17;;;;;;;3.88;100.00;101253.81;5082962;28;20031;-68
2023/12/02 10:26:27;;;;;;;30.33;18.38;;;;;;;4.18;100.00;101246.22;5082435;28;20063;-68
2023/12/02 10:29:10;;;;;;;30.88;19.60;;;;;;;4.81;100.00;101257.16;5082422;28;20050;-68
2023/12/02 10:31:41;;;;;;;30.77;19.10;;;;;;;5.17;100.00;101260.13;5076804;28;20467;-68
2023/12/02 10:34:22;;;;;;;30.92;19.45;;;;;;;4.79;100.00;101259.75;5076372;28;20427;-68
2023/12/02 10:36:50;;;;;;;30.60;18.55;;;;;;;4.95;100.00;101255.91;5081975;28;20037;-68
2023/12/02 10:39:43;;;;;;;31.02;19.23;;;;;;;5.31;100.00;101260.56;5086448;28;20497;-72
2023/12/02 10:42:28;;;;;;;30.55;18.70;;;;;;;5.53;100.00;101264.78;5080640;28;20032;-70
2023/12/02 10:45:04;;;;;;;30.63;18.85;;;;;;;5.84;100.00;101263.13;5084491;28;20021;-70
2023/12/02 10:47:31;;;;;;;29.02;17.00;;;;;;;6.52;100.00;101265.06;5084427;28;20090;-71
2023/12/02 10:49:59;;;;;;;29.50;18.55;;;;;;;6.47;100.00;101263.19;5086507;28;20074;-71
2023/12/02 10:52:27;;;;;;;30.90;18.48;;;;;;;6.28;100.00;101262.69;5085050;28;20110;-72
2023/12/02 10:54:55;;;;;;;30.85;18.67;;;;;;;5.11;100.00;101267.81;5085632;28;20094;-72
2023/12/02 10:57:22;;;;;;;30.63;19.05;;;;;;;4.22;100.00;101264.66;5085748;28;20020;-71
2023/12/02 11:00:11;;;;;;;32.33;19.23;;;;;;;2.93;100.00;101279.66;5084827;28;20048;-70
2023/12/02 11:02:57;;;;;;;30.95;19.35;;;;;;;1.98;100.00;101273.72;5079879;28;20036;-71